createdAt,value
2024-02-14T00:00:20.328Z,8.50
2024-02-14T00:02:48.064Z,8.48
2024-02-14T00:05:15.358Z,8.57
2024-02-14T00:07:43.057Z,8.55
2024-02-14T00:10:10.691Z,8.42
2024-02-14T00:12:37.937Z,8.42
2024-02-14T00:15:06.255Z,8.38
2024-02-14T00:17:33.812Z,8.36
2024-02-14T00:20:04.339Z,8.32
2024-02-14T00:22:32.547Z,8.23
2024-02-14T00:24:59.830Z,8.18
2024-02-14T00:27:27.260Z,8.28
2024-02-14T00:29:54.602Z,8.21
2024-02-14T00:32:21.856Z,8.10
2024-02-14T00:34:49.338Z,8.18
2024-02-14T00:37:16.979Z,8.23
2024-02-14T00:39:44.128Z,8.17
2024-02-14T00:42:11.285Z,8.25
2024-02-14T00:44:38.699Z,8.14
2024-02-14T00:47:06.067Z,8.05
2024-02-14T00:49:36.211Z,8.14
2024-02-14T00:52:03.736Z,8.05
2024-02-14T00:54:30.928Z,7.95
2024-02-14T00:56:58.244Z,8.09
2024-02-14T00:59:25.570Z,7.90
2024-02-14T01:01:53.105Z,7.86
2024-02-14T01:04:20.339Z,7.85
2024-02-14T01:06:47.712Z,7.91
2024-02-14T01:09:14.973Z,7.93
2024-02-14T01:11:42.143Z,7.92
2024-02-14T01:14:09.450Z,7.96
2024-02-14T01:16:44.037Z,7.82
2024-02-14T01:19:11.875Z,7.79
2024-02-14T01:21:39.472Z,7.78
2024-02-14T01:24:07.132Z,7.78
2024-02-14T01:26:34.413Z,7.75
2024-02-14T01:29:01.512Z,7.77
2024-02-14T01:31:28.801Z,7.86
2024-02-14T01:33:57.513Z,7.77
2024-02-14T01:36:24.922Z,7.93
2024-02-14T01:38:52.166Z,7.96
2024-02-14T01:41:19.335Z,7.91
2024-02-14T01:43:46.443Z,7.82
2024-02-14T01:46:14.139Z,7.70
2024-02-14T01:48:42.822Z,7.73
2024-02-14T01:51:14.081Z,7.90
2024-02-14T01:53:41.935Z,8.03
2024-02-14T01:56:09.633Z,8.04
2024-02-14T01:58:38.114Z,7.94
2024-02-14T02:01:05.753Z,7.84
2024-02-14T02:03:33.161Z,7.77
2024-02-14T02:06:00.578Z,7.78
2024-02-14T02:08:28.182Z,7.84
2024-02-14T02:10:55.464Z,7.67
2024-02-14T02:13:22.686Z,7.75
2024-02-14T02:15:49.958Z,7.70
2024-02-14T02:18:17.449Z,7.82
2024-02-14T02:20:45.055Z,7.75
2024-02-14T02:23:13.227Z,7.71
2024-02-14T02:25:40.495Z,7.68
2024-02-14T02:28:07.804Z,7.73
2024-02-14T02:30:35.464Z,7.54
2024-02-14T02:33:03.347Z,7.49
2024-02-14T02:35:30.937Z,7.46
2024-02-14T02:37:58.185Z,7.61
2024-02-14T02:40:26.205Z,7.53
2024-02-14T02:42:53.792Z,7.35
2024-02-14T02:45:21.141Z,7.36
2024-02-14T02:47:48.653Z,7.42
2024-02-14T02:50:16.009Z,7.42
2024-02-14T02:52:43.193Z,7.35
2024-02-14T02:55:10.636Z,7.22
2024-02-14T02:57:37.756Z,7.03
2024-02-14T03:00:08.053Z,7.04
2024-02-14T03:02:36.454Z,7.25
2024-02-14T03:05:03.935Z,7.19
2024-02-14T03:07:31.210Z,7.42
2024-02-14T03:09:58.393Z,7.43
2024-02-14T03:12:25.555Z,7.18
2024-02-14T03:14:53.599Z,7.25
2024-02-14T03:17:20.821Z,7.18
2024-02-14T03:19:48.212Z,7.35
2024-02-14T03:22:15.607Z,7.31
2024-02-14T03:24:42.828Z,7.45
2024-02-14T03:27:10.055Z,7.31
2024-02-14T03:29:37.342Z,7.33
2024-02-14T03:32:04.789Z,7.41
2024-02-14T03:34:33.005Z,7.31
2024-02-14T03:37:01.327Z,7.34
2024-02-14T03:39:28.839Z,7.46
2024-02-14T03:41:57.226Z,7.38
2024-02-14T03:44:24.460Z,7.54
2024-02-14T03:46:51.717Z,7.61
2024-02-14T03:49:18.990Z,7.66
2024-02-14T03:51:46.399Z,7.61
2024-02-14T03:54:13.647Z,7.76
2024-02-14T03:56:40.924Z,7.64
2024-02-14T03:59:08.214Z,7.63
2024-02-14T04:01:35.524Z,7.49
2024-02-14T04:04:02.902Z,7.33
2024-02-14T04:06:30.424Z,7.36
2024-02-14T04:08:57.754Z,7.42
2024-02-14T04:11:25.040Z,7.47
2024-02-14T04:13:52.186Z,7.41
2024-02-14T04:16:22.220Z,7.38
2024-02-14T04:18:49.559Z,7.49
2024-02-14T04:21:16.944Z,7.33
2024-02-14T04:23:44.211Z,7.31
2024-02-14T04:26:19.012Z,7.31
2024-02-14T04:28:46.167Z,7.31
2024-02-14T04:31:13.394Z,7.27
2024-02-14T04:33:40.802Z,13.34
2024-02-14T04:36:08.248Z,13.29
2024-02-14T04:38:35.887Z,13.03
2024-02-14T04:41:03.212Z,12.74
2024-02-14T04:43:30.625Z,12.40
2024-02-14T04:45:57.841Z,13.66
2024-02-14T04:48:25.142Z,14.00
2024-02-14T04:50:52.620Z,13.37
2024-02-14T04:53:19.974Z,13.43
2024-02-14T04:55:47.173Z,10.71
2024-02-14T04:58:14.442Z,9.42
2024-02-14T05:00:41.833Z,8.38
2024-02-14T05:03:09.075Z,8.03
2024-02-14T05:05:36.939Z,11.75
2024-02-14T05:08:04.707Z,12.76
2024-02-14T05:10:32.690Z,12.85
2024-02-14T05:13:00.449Z,12.72
2024-02-14T05:15:27.972Z,12.82
2024-02-14T05:17:55.480Z,12.77
2024-02-14T05:20:23.108Z,12.94
2024-02-14T05:22:50.581Z,12.53
2024-02-14T05:25:17.849Z,9.72
2024-02-14T05:27:45.276Z,8.53
2024-02-14T05:30:12.776Z,7.95
2024-02-14T05:32:40.029Z,7.64
2024-02-14T05:35:07.737Z,7.46
2024-02-14T05:37:37.799Z,7.70
2024-02-14T05:40:06.821Z,7.81
2024-02-14T05:42:34.099Z,7.72
2024-02-14T05:45:01.593Z,7.60
2024-02-14T05:47:28.824Z,7.46
2024-02-14T05:49:56.151Z,7.87
2024-02-14T05:52:23.439Z,7.65
2024-02-14T05:54:50.679Z,7.46
2024-02-14T05:57:17.917Z,7.45
2024-02-14T05:59:45.854Z,7.54
2024-02-14T06:02:13.330Z,7.35
2024-02-14T06:04:41.194Z,7.40
2024-02-14T06:07:08.924Z,7.39
2024-02-14T06:09:36.822Z,7.49
2024-02-14T06:12:05.032Z,7.52
2024-02-14T06:14:32.748Z,7.50
2024-02-14T06:17:00.660Z,7.53
2024-02-14T06:19:28.861Z,7.52
2024-02-14T06:21:56.674Z,7.41
2024-02-14T06:24:25.034Z,7.42
2024-02-14T06:26:52.688Z,7.52
2024-02-14T06:29:20.260Z,7.43
2024-02-14T06:31:47.882Z,7.39
2024-02-14T06:34:15.306Z,7.50
2024-02-14T06:36:42.628Z,7.49
2024-02-14T06:39:09.942Z,7.47
2024-02-14T06:41:37.144Z,7.50
2024-02-14T06:44:05.562Z,7.48
2024-02-14T06:46:32.793Z,7.48
2024-02-14T06:49:00.151Z,7.54
2024-02-14T06:51:27.506Z,7.53
2024-02-14T06:53:54.740Z,7.61
2024-02-14T06:56:22.069Z,7.59
2024-02-14T06:58:49.401Z,7.56
2024-02-14T07:01:16.640Z,7.64
2024-02-14T07:03:43.887Z,7.66
2024-02-14T07:06:11.266Z,7.73
2024-02-14T07:08:38.474Z,7.91
2024-02-14T07:11:05.971Z,7.90
2024-02-14T07:13:33.306Z,8.07
2024-02-14T07:16:00.532Z,8.28
2024-02-14T07:18:27.918Z,8.45
2024-02-14T07:20:55.389Z,8.76
2024-02-14T07:23:22.658Z,8.90
2024-02-14T07:25:49.810Z,9.39
2024-02-14T07:28:16.963Z,10.32
2024-02-14T07:30:45.004Z,10.24
2024-02-14T07:33:12.702Z,10.17
2024-02-14T07:35:40.011Z,10.00
2024-02-14T07:38:07.345Z,10.43
2024-02-14T07:40:34.785Z,10.87
2024-02-14T07:43:02.393Z,10.71
2024-02-14T07:45:30.110Z,11.17
2024-02-14T07:47:57.455Z,11.22
2024-02-14T07:50:24.978Z,10.48
2024-02-14T07:52:52.403Z,10.16
2024-02-14T07:55:19.811Z,10.15
2024-02-14T07:57:46.988Z,11.02
2024-02-14T08:00:14.827Z,11.28
2024-02-14T08:02:42.246Z,10.95
2024-02-14T08:05:09.744Z,10.47
2024-02-14T08:07:37.287Z,10.31
2024-02-14T08:10:05.134Z,10.40
2024-02-14T08:12:32.371Z,10.16
2024-02-14T08:14:59.817Z,10.07
2024-02-14T08:17:27.196Z,10.01
2024-02-14T08:19:54.617Z,9.90
2024-02-14T08:22:21.975Z,9.67
2024-02-14T08:24:49.247Z,9.66
2024-02-14T08:27:16.521Z,9.89
2024-02-14T08:29:46.414Z,9.93
2024-02-14T08:32:13.849Z,10.01
2024-02-14T08:34:41.350Z,10.04
2024-02-14T08:37:08.750Z,10.21
2024-02-14T08:39:35.930Z,10.52
2024-02-14T08:42:03.168Z,10.72
2024-02-14T08:44:30.532Z,10.93
2024-02-14T08:46:57.944Z,10.92
2024-02-14T08:49:25.204Z,10.90
2024-02-14T08:51:52.872Z,10.73
2024-02-14T08:54:20.266Z,10.78
2024-02-14T08:56:47.707Z,10.89
2024-02-14T08:59:15.282Z,10.72
2024-02-14T09:01:42.768Z,10.79
2024-02-14T09:04:10.010Z,10.98
2024-02-14T09:06:37.604Z,11.03
2024-02-14T09:09:05.211Z,11.01
2024-02-14T09:11:32.623Z,10.73
2024-02-14T09:14:00.000Z,10.67
2024-02-14T09:16:27.463Z,11.03
2024-02-14T09:18:54.965Z,10.92
2024-02-14T09:21:22.485Z,10.92
2024-02-14T09:23:50.181Z,10.96
2024-02-14T09:26:17.694Z,11.00
2024-02-14T09:28:45.217Z,11.36
2024-02-14T09:31:12.688Z,11.29
2024-02-14T09:33:40.404Z,11.73
2024-02-14T09:36:08.026Z,12.51
2024-02-14T09:38:35.450Z,13.15
2024-02-14T09:41:11.938Z,13.03
2024-02-14T09:43:41.155Z,13.43
2024-02-14T09:46:08.859Z,13.81
2024-02-14T09:48:37.415Z,13.90
2024-02-14T09:51:06.394Z,13.46
2024-02-14T09:53:34.585Z,13.39
2024-02-14T09:56:03.610Z,13.51
2024-02-14T09:58:32.253Z,13.43
2024-02-14T10:00:59.782Z,12.86
2024-02-14T10:03:27.309Z,12.33
2024-02-14T10:05:55.377Z,12.81
2024-02-14T10:08:23.894Z,13.15
2024-02-14T10:10:53.157Z,13.44
2024-02-14T10:13:21.822Z,13.86
2024-02-14T10:15:49.333Z,14.01
2024-02-14T10:18:16.943Z,14.10
2024-02-14T10:20:54.921Z,13.74
2024-02-14T10:23:22.462Z,13.95
2024-02-14T10:25:56.918Z,13.98
2024-02-14T10:28:30.233Z,14.15
2024-02-14T10:31:06.653Z,14.33
2024-02-14T10:33:34.224Z,14.14
2024-02-14T10:36:03.260Z,14.35
2024-02-14T10:38:33.828Z,13.95
2024-02-14T10:41:02.007Z,13.92
2024-02-14T10:43:29.654Z,13.83
2024-02-14T10:46:00.120Z,14.00
2024-02-14T10:48:32.745Z,14.02
2024-02-14T10:51:03.800Z,14.10
2024-02-14T10:53:34.725Z,14.31
2024-02-14T10:56:03.218Z,14.41
2024-02-14T10:58:31.840Z,14.56
2024-02-14T11:01:00.700Z,14.98
2024-02-14T11:03:28.824Z,15.07
2024-02-14T11:05:56.410Z,15.13
2024-02-14T11:08:23.988Z,15.27
2024-02-14T11:10:56.447Z,15.14
2024-02-14T11:13:30.761Z,14.81
2024-02-14T11:16:01.372Z,14.57
2024-02-14T11:18:31.259Z,14.09
2024-02-14T11:20:59.191Z,13.85
2024-02-14T11:23:27.001Z,15.00
2024-02-14T11:26:01.870Z,16.24
2024-02-14T11:28:29.980Z,15.51
2024-02-14T11:31:08.578Z,14.45
2024-02-14T11:33:36.200Z,14.84
2024-02-14T11:36:10.075Z,14.94
2024-02-14T11:38:41.165Z,15.04
2024-02-14T11:41:08.791Z,15.41
2024-02-14T11:43:36.291Z,15.25
2024-02-14T11:46:03.811Z,15.59
2024-02-14T11:48:31.463Z,15.44
2024-02-14T11:50:59.068Z,15.41
2024-02-14T11:53:26.562Z,15.28
2024-02-14T11:55:54.296Z,15.03
2024-02-14T11:58:21.769Z,14.85
2024-02-14T12:00:49.326Z,14.34
2024-02-14T12:03:20.278Z,14.50
2024-02-14T12:05:50.380Z,13.88
2024-02-14T12:08:18.687Z,13.76
2024-02-14T12:10:47.394Z,13.81
2024-02-14T12:13:17.678Z,13.76
2024-02-14T12:15:48.039Z,13.90
2024-02-14T12:18:17.513Z,13.87
2024-02-14T12:20:45.425Z,13.52
2024-02-14T12:23:17.413Z,13.06
2024-02-14T12:25:45.723Z,12.82
2024-02-14T12:28:20.255Z,12.83
2024-02-14T12:30:52.017Z,12.70
2024-02-14T12:33:19.662Z,12.73
2024-02-14T12:35:48.501Z,12.62
2024-02-14T12:38:19.129Z,12.85
2024-02-14T12:40:46.873Z,12.78
2024-02-14T12:43:15.952Z,12.87
2024-02-14T12:45:43.893Z,12.71
2024-02-14T12:48:12.535Z,12.89
2024-02-14T12:50:39.997Z,12.99
2024-02-14T12:53:08.523Z,13.05
2024-02-14T12:55:36.005Z,12.92
2024-02-14T12:58:03.871Z,13.06
2024-02-14T13:00:31.489Z,12.86
2024-02-14T13:02:59.041Z,12.53
2024-02-14T13:05:26.479Z,12.58
2024-02-14T13:07:54.008Z,12.68
2024-02-14T13:10:21.505Z,12.65
2024-02-14T13:12:48.979Z,12.43
2024-02-14T13:15:16.659Z,12.76
2024-02-14T13:17:44.184Z,12.73
2024-02-14T13:20:12.216Z,12.72
2024-02-14T13:22:39.777Z,12.48
2024-02-14T13:25:07.546Z,12.66
2024-02-14T13:27:34.995Z,12.63
2024-02-14T13:30:06.311Z,12.65
2024-02-14T13:32:34.029Z,12.62
2024-02-14T13:35:01.588Z,12.42
2024-02-14T13:37:29.332Z,12.52
2024-02-14T13:39:56.667Z,12.67
2024-02-14T13:42:24.142Z,12.48
2024-02-14T13:44:51.636Z,12.66
2024-02-14T13:47:19.450Z,12.63
2024-02-14T13:49:46.875Z,12.70
2024-02-14T13:52:14.421Z,12.57
2024-02-14T13:54:41.799Z,12.37
2024-02-14T13:57:10.525Z,12.49
2024-02-14T13:59:38.364Z,12.59
2024-02-14T14:02:06.100Z,12.56
2024-02-14T14:04:34.044Z,12.68
2024-02-14T14:07:01.945Z,12.54
2024-02-14T14:09:29.332Z,12.51
2024-02-14T14:11:56.816Z,12.62
2024-02-14T14:14:24.201Z,12.58
2024-02-14T14:16:51.696Z,12.49
2024-02-14T14:19:19.259Z,12.63
2024-02-14T14:21:46.798Z,12.49
2024-02-14T14:24:16.902Z,12.40
2024-02-14T14:26:44.390Z,12.34
2024-02-14T14:29:11.860Z,12.35
2024-02-14T14:31:39.232Z,12.26
2024-02-14T14:34:06.664Z,12.42
2024-02-14T14:36:34.155Z,12.08
2024-02-14T14:39:01.620Z,12.17
2024-02-14T14:41:29.128Z,12.23
2024-02-14T14:43:56.697Z,12.13
2024-02-14T14:46:24.024Z,12.13
2024-02-14T14:48:51.649Z,12.06
2024-02-14T14:51:19.364Z,12.09
2024-02-14T14:53:47.048Z,12.07
2024-02-14T14:56:14.464Z,12.01
2024-02-14T14:58:42.013Z,11.99
2024-02-14T15:01:09.544Z,11.96
2024-02-14T15:03:36.897Z,11.98
2024-02-14T15:06:04.650Z,11.98
2024-02-14T15:08:32.214Z,11.84
2024-02-14T15:10:59.717Z,11.73
2024-02-14T15:13:27.253Z,11.64
2024-02-14T15:15:54.780Z,11.81
2024-02-14T15:18:22.234Z,11.72
2024-02-14T15:20:49.805Z,11.71
2024-02-14T15:23:17.214Z,11.68
2024-02-14T15:25:44.588Z,11.65
2024-02-14T15:28:12.480Z,11.65
2024-02-14T15:30:39.927Z,11.66
2024-02-14T15:33:07.486Z,11.53
2024-02-14T15:35:35.134Z,11.42
2024-02-14T15:38:02.704Z,11.43
2024-02-14T15:40:30.086Z,11.44
2024-02-14T15:42:57.485Z,11.48
2024-02-14T15:45:24.991Z,11.43
2024-02-14T15:47:52.602Z,11.54
2024-02-14T15:50:19.986Z,11.44
2024-02-14T15:52:47.359Z,11.56
2024-02-14T15:55:14.890Z,11.43
2024-02-14T15:57:42.226Z,11.49
2024-02-14T16:00:10.382Z,12.89
2024-02-14T16:02:38.031Z,12.14
2024-02-14T16:05:05.801Z,11.72
2024-02-14T16:07:33.170Z,11.63
2024-02-14T16:10:00.535Z,11.37
2024-02-14T16:12:27.962Z,11.27
2024-02-14T16:14:55.524Z,11.28
2024-02-14T16:17:23.052Z,11.50
2024-02-14T16:19:50.533Z,11.19
2024-02-14T16:22:18.253Z,11.20
2024-02-14T16:24:45.664Z,11.06
2024-02-14T16:27:13.075Z,11.06
2024-02-14T16:29:40.573Z,12.15
2024-02-14T16:32:08.200Z,12.67
2024-02-14T16:34:36.015Z,13.47
2024-02-14T16:37:03.936Z,12.13
2024-02-14T16:39:41.574Z,11.39
2024-02-14T16:42:11.858Z,11.06
2024-02-14T16:44:39.665Z,11.24
2024-02-14T16:47:07.750Z,10.85
2024-02-14T16:49:35.900Z,10.82
2024-02-14T16:52:04.943Z,10.52
2024-02-14T16:54:33.059Z,10.64
2024-02-14T16:57:01.716Z,10.64
2024-02-14T16:59:28.975Z,10.64
2024-02-14T17:01:56.128Z,10.53
2024-02-14T17:04:23.401Z,10.53
2024-02-14T17:06:50.742Z,10.75
2024-02-14T17:09:18.118Z,10.45
2024-02-14T17:11:45.580Z,10.47
2024-02-14T17:14:12.917Z,10.44
2024-02-14T17:16:40.372Z,10.64
2024-02-14T17:19:07.799Z,10.54
2024-02-14T17:21:35.432Z,10.35
2024-02-14T17:24:03.230Z,10.40
2024-02-14T17:26:30.703Z,10.44
2024-02-14T17:28:58.350Z,10.38
2024-02-14T17:31:25.830Z,10.30
2024-02-14T17:33:53.491Z,10.28
2024-02-14T17:36:20.998Z,10.44
2024-02-14T17:38:48.544Z,10.46
2024-02-14T17:41:15.899Z,10.47
2024-02-14T17:43:43.269Z,10.47
2024-02-14T17:46:10.890Z,10.66
2024-02-14T17:48:38.740Z,10.58
2024-02-14T17:51:06.385Z,10.41
2024-02-14T17:53:33.812Z,10.39
2024-02-14T17:56:01.191Z,10.43
2024-02-14T17:58:28.471Z,10.50
2024-02-14T18:00:55.880Z,10.46
2024-02-14T18:03:23.434Z,10.49
2024-02-14T18:05:50.983Z,10.43
2024-02-14T18:08:18.375Z,10.44
2024-02-14T18:10:45.800Z,10.34
2024-02-14T18:13:13.609Z,10.40
2024-02-14T18:15:41.207Z,10.43
2024-02-14T18:18:08.673Z,10.37
2024-02-14T18:20:36.068Z,10.24
2024-02-14T18:23:03.715Z,10.13
2024-02-14T18:25:31.213Z,10.13
2024-02-14T18:27:58.985Z,10.25
2024-02-14T18:30:26.612Z,10.13
2024-02-14T18:32:54.129Z,10.05
2024-02-14T18:35:21.883Z,10.22
2024-02-14T18:37:49.646Z,10.35
2024-02-14T18:40:17.199Z,10.27
2024-02-14T18:42:44.589Z,10.25
2024-02-14T18:45:12.119Z,10.19
2024-02-14T18:47:39.743Z,10.17
2024-02-14T18:50:07.604Z,10.19
2024-02-14T18:52:35.128Z,10.12
2024-02-14T18:55:02.498Z,9.97
2024-02-14T18:57:29.959Z,10.04
2024-02-14T18:59:59.276Z,10.04
2024-02-14T19:02:26.691Z,9.99
2024-02-14T19:04:54.212Z,9.79
2024-02-14T19:07:21.619Z,9.91
2024-02-14T19:09:49.021Z,9.80
2024-02-14T19:12:16.650Z,9.82
2024-02-14T19:14:44.506Z,9.95
2024-02-14T19:17:39.320Z,9.90
2024-02-14T19:20:31.192Z,9.95
2024-02-14T19:23:23.120Z,9.88
2024-02-14T19:26:15.332Z,9.87
2024-02-14T19:29:09.736Z,9.79
2024-02-14T19:32:01.145Z,9.99
2024-02-14T19:34:53.131Z,9.74
2024-02-14T19:37:45.301Z,9.79
2024-02-14T19:40:36.838Z,9.74
2024-02-14T19:43:35.235Z,9.70
2024-02-14T19:46:31.185Z,9.72
2024-02-14T19:49:24.859Z,9.82
2024-02-14T19:52:16.926Z,9.71
2024-02-14T19:55:09.302Z,9.68
2024-02-14T19:58:01.349Z,9.67
2024-02-14T20:00:53.114Z,9.61
2024-02-14T20:03:45.803Z,9.64
2024-02-14T20:06:38.309Z,9.59
2024-02-14T20:09:30.241Z,9.51
2024-02-14T20:12:22.059Z,9.48
2024-02-14T20:15:14.282Z,9.46
2024-02-14T20:18:06.353Z,9.42
2024-02-14T20:20:58.511Z,9.39
2024-02-14T20:23:50.142Z,9.44
2024-02-14T20:26:42.065Z,9.35
2024-02-14T20:29:34.687Z,9.26
2024-02-14T20:32:26.165Z,9.06
2024-02-14T20:35:18.609Z,8.99
2024-02-14T20:38:10.243Z,8.97
2024-02-14T20:41:01.821Z,8.89
2024-02-14T20:43:54.206Z,9.01
2024-02-14T20:46:46.136Z,9.02
2024-02-14T20:49:39.453Z,8.93
2024-02-14T20:52:31.268Z,8.72
2024-02-14T20:55:22.854Z,8.53
2024-02-14T20:58:15.127Z,8.63
2024-02-14T21:01:07.161Z,8.70
2024-02-14T21:03:59.127Z,8.56
2024-02-14T21:06:51.354Z,8.72
2024-02-14T21:09:43.680Z,8.61
2024-02-14T21:12:34.689Z,8.38
2024-02-14T21:15:26.807Z,8.66
2024-02-14T21:18:19.200Z,8.65
2024-02-14T21:21:11.412Z,8.25
2024-02-14T21:24:03.805Z,8.19
2024-02-14T21:26:56.501Z,8.38
2024-02-14T21:29:48.232Z,8.48
2024-02-14T21:32:40.406Z,8.32
2024-02-14T21:35:32.201Z,8.29
2024-02-14T21:38:24.142Z,8.07
2024-02-14T21:41:16.286Z,7.97
2024-02-14T21:44:08.104Z,7.92
2024-02-14T21:47:00.159Z,7.89
2024-02-14T21:49:52.841Z,7.73
2024-02-14T21:52:45.254Z,7.62
2024-02-14T21:55:36.747Z,7.58
2024-02-14T21:58:29.072Z,7.70
2024-02-14T22:01:21.263Z,7.60
2024-02-14T22:04:13.053Z,7.42
2024-02-14T22:07:05.357Z,7.50
2024-02-14T22:09:57.249Z,7.35
2024-02-14T22:12:48.878Z,7.09
2024-02-14T22:15:41.525Z,7.08
2024-02-14T22:18:32.954Z,6.90
2024-02-14T22:21:25.066Z,6.77
2024-02-14T22:24:17.061Z,6.69
2024-02-14T22:27:09.242Z,6.68
2024-02-14T22:30:01.324Z,6.70
2024-02-14T22:32:52.994Z,6.78
2024-02-14T22:35:45.260Z,6.81
2024-02-14T22:38:37.736Z,6.66
2024-02-14T22:41:30.442Z,6.72
2024-02-14T22:44:21.942Z,6.84
2024-02-14T22:47:14.308Z,6.83
2024-02-14T22:50:09.077Z,6.81
2024-02-14T22:53:01.279Z,6.77
2024-02-14T22:55:53.179Z,6.81
2024-02-14T22:58:44.812Z,6.66
2024-02-14T23:01:37.329Z,6.53
2024-02-14T23:04:28.942Z,6.25
2024-02-14T23:07:21.018Z,6.34
2024-02-14T23:10:13.205Z,6.29
2024-02-14T23:13:05.290Z,6.35
2024-02-14T23:15:57.147Z,6.39
2024-02-14T23:18:49.128Z,6.42
2024-02-14T23:21:41.292Z,6.28
2024-02-14T23:24:33.203Z,6.18
2024-02-14T23:27:25.103Z,6.11
2024-02-14T23:30:16.953Z,5.97
2024-02-14T23:33:09.268Z,6.02
2024-02-14T23:36:01.783Z,6.07
2024-02-14T23:38:53.958Z,5.98
2024-02-14T23:41:45.972Z,5.88
2024-02-14T23:44:37.926Z,5.82
2024-02-14T23:47:30.435Z,5.81
2024-02-14T23:50:22.593Z,5.91
2024-02-14T23:53:14.259Z,5.98
2024-02-14T23:56:07.357Z,5.73
2024-02-14T23:58:59.128Z,5.44
